Time;durP1;ratioP1;P1;durP2;ratioP2;P2;SDS_P1;SDS_P2;PMS_P1;PMS_P2;Temp;Humidity;BMP_temperature;BMP_pressure;BME280_temperature;BME280_humidity;BME280_pressure;Samples;Min_cycle;Max_cycle;Signal;HPM_P1;HPM_P2
2022/08/19 00:01:20;;;;;;;0.40;0.30;;;18.10;99.90;;;;;;4983916;28;20440;-76
2022/08/19 00:03:46;;;;;;;0.40;0.32;;;18.10;99.90;;;;;;4999284;28;20408;-76
2022/08/19 00:06:12;;;;;;;0.40;0.30;;;18.10;99.90;;;;;;4999851;28;20410;-76
2022/08/19 00:08:37;;;;;;;0.40;0.30;;;18.10;99.90;;;;;;5002899;28;20408;-76
2022/08/19 00:11:03;;;;;;;0.70;0.70;;;18.10;99.90;;;;;;5003958;28;20918;-76
2022/08/19 00:13:29;;;;;;;0.57;0.57;;;18.20;99.90;;;;;;5000050;28;20408;-76
2022/08/19 00:15:55;;;;;;;0.40;0.30;;;18.20;99.90;;;;;;5000402;28;20404;-76
2022/08/19 00:18:21;;;;;;;0.40;0.30;;;18.20;99.90;;;;;;5000168;28;20418;-76
2022/08/19 00:20:47;;;;;;;0.40;0.30;;;18.10;99.90;;;;;;5003067;28;20424;-76
2022/08/19 00:23:12;;;;;;;0.40;0.40;;;18.10;99.90;;;;;;5001890;28;20893;-77
2022/08/19 00:25:38;;;;;;;0.40;0.20;;;18.00;99.90;;;;;;5000044;28;21101;-76
2022/08/19 00:28:04;;;;;;;0.40;0.30;;;18.00;99.90;;;;;;4987228;28;20436;-76
2022/08/19 00:30:30;;;;;;;0.70;0.70;;;18.20;99.90;;;;;;4997164;28;20415;-76
2022/08/19 00:32:56;;;;;;;0.40;0.40;;;18.10;99.90;;;;;;4984627;28;20492;-77
2022/08/19 00:35:22;;;;;;;0.50;0.50;;;18.20;99.90;;;;;;4996273;28;20406;-77
2022/08/19 00:37:49;;;;;;;0.40;0.30;;;18.20;99.90;;;;;;5003202;28;20424;-77
2022/08/19 00:40:16;;;;;;;0.40;0.30;;;18.00;99.90;;;;;;4999052;28;20489;-76
2022/08/19 00:42:42;;;;;;;0.40;0.40;;;18.00;99.90;;;;;;5000517;28;20523;-77
2022/08/19 00:45:18;;;;;;;0.40;0.30;;;18.00;99.90;;;;;;4999713;28;20786;-76
2022/08/19 00:47:44;;;;;;;0.40;0.30;;;18.00;99.90;;;;;;4998248;28;20457;-77
2022/08/19 00:50:14;;;;;;;0.80;0.80;;;18.00;99.90;;;;;;4975074;28;20402;-76
2022/08/19 00:52:45;;;;;;;0.50;0.50;;;18.10;99.90;;;;;;5006072;28;20377;-77
2022/08/19 00:55:15;;;;;;;0.40;0.30;;;18.00;99.90;;;;;;5002031;28;20494;-76
2022/08/19 00:57:46;;;;;;;0.40;0.40;;;17.90;99.90;;;;;;5001795;28;20444;-77
2022/08/19 01:00:16;;;;;;;0.40;0.30;;;18.00;99.90;;;;;;5001003;28;20826;-77
2022/08/19 01:02:42;;;;;;;0.40;0.30;;;18.00;99.90;;;;;;5002549;28;20820;-77
2022/08/19 01:05:19;;;;;;;0.40;0.30;;;18.00;99.90;;;;;;4999781;28;20412;-77
2022/08/19 01:07:46;;;;;;;0.45;0.43;;;18.00;99.90;;;;;;5006572;28;20414;-77
2022/08/19 01:10:18;;;;;;;0.40;0.30;;;17.90;99.90;;;;;;4998710;28;20385;-77
2022/08/19 01:12:44;;;;;;;0.40;0.40;;;17.90;99.90;;;;;;4998100;28;20429;-77
2022/08/19 01:15:15;;;;;;;0.40;0.30;;;17.90;99.90;;;;;;5000755;28;20490;-77
2022/08/19 01:17:41;;;;;;;0.40;0.30;;;17.90;99.90;;;;;;4998584;28;20530;-77
2022/08/19 01:20:12;;;;;;;0.40;0.20;;;18.00;99.90;;;;;;5000983;28;20408;-77
2022/08/19 01:22:46;;;;;;;0.40;0.30;;;17.90;99.90;;;;;;5000120;28;20827;-76
2022/08/19 01:25:17;;;;;;;0.40;0.20;;;17.90;99.90;;;;;;5003658;28;20412;-77
2022/08/19 01:27:47;;;;;;;0.40;0.30;;;17.90;99.90;;;;;;4998738;28;20414;-77
2022/08/19 01:30:18;;;;;;;0.40;0.28;;;18.00;99.90;;;;;;4999577;28;20406;-77
2022/08/19 01:32:43;;;;;;;0.40;0.30;;;17.80;99.90;;;;;;4999775;28;20571;-75
2022/08/19 01:35:11;;;;;;;0.40;0.20;;;17.80;99.90;;;;;;5007859;28;20487;-77
2022/08/19 01:37:55;;;;;;;0.40;0.30;;;17.90;99.90;;;;;;4997525;28;20425;-76
2022/08/19 01:40:23;;;;;;;0.40;0.20;;;17.90;99.90;;;;;;5000718;28;20954;-77
2022/08/19 01:42:49;;;;;;;1.38;1.27;;;17.90;99.90;;;;;;4998665;28;20948;-76
2022/08/19 01:45:16;;;;;;;0.50;0.50;;;17.90;99.90;;;;;;5000312;28;20388;-77
2022/08/19 01:47:42;;;;;;;0.40;0.30;;;17.90;99.90;;;;;;4995504;28;20411;-77
2022/08/19 01:50:09;;;;;;;0.90;0.80;;;17.80;99.90;;;;;;5000575;28;20456;-77
2022/08/19 01:52:36;;;;;;;0.40;0.30;;;17.80;99.90;;;;;;4999528;28;20382;-77
2022/08/19 01:55:03;;;;;;;0.70;0.70;;;17.90;99.90;;;;;;5001642;28;20417;-76
2022/08/19 01:57:29;;;;;;;0.40;0.30;;;17.80;99.90;;;;;;4998066;28;20410;-76
2022/08/19 01:59:54;;;;;;;1.70;0.60;;;17.80;99.90;;;;;;4998234;28;20419;-77
2022/08/19 02:02:20;;;;;;;0.50;0.50;;;17.70;99.90;;;;;;4999552;28;20466;-77
2022/08/19 02:04:45;;;;;;;0.50;0.50;;;17.70;99.90;;;;;;5002437;28;20817;-77
2022/08/19 02:07:11;;;;;;;0.40;0.40;;;17.80;99.90;;;;;;5001444;28;20396;-76
2022/08/19 02:09:37;;;;;;;0.40;0.20;;;17.90;99.90;;;;;;4997913;28;20479;-75
2022/08/19 02:12:04;;;;;;;0.40;0.40;;;18.00;99.90;;;;;;4996596;28;20892;-75
2022/08/19 02:14:29;;;;;;;0.52;0.52;;;17.90;99.90;;;;;;4996668;28;20445;-76
2022/08/19 02:16:55;;;;;;;0.40;0.30;;;17.90;99.90;;;;;;4998027;28;20415;-75
2022/08/19 02:19:20;;;;;;;0.50;0.50;;;17.90;99.90;;;;;;5003448;28;20404;-75
2022/08/19 02:21:46;;;;;;;0.40;0.30;;;17.90;99.90;;;;;;4994669;28;20410;-74
2022/08/19 02:24:12;;;;;;;0.40;0.27;;;17.90;99.90;;;;;;5004223;28;20408;-76
2022/08/19 02:26:37;;;;;;;0.40;0.30;;;17.90;99.90;;;;;;4995180;28;20436;-75
2022/08/19 02:29:03;;;;;;;0.40;0.20;;;18.00;99.90;;;;;;5000300;28;20757;-75
2022/08/19 02:31:29;;;;;;;0.40;0.30;;;17.90;99.90;;;;;;5002329;28;20427;-74
2022/08/19 02:33:56;;;;;;;0.40;0.30;;;17.80;99.90;;;;;;4987564;28;20408;-75
2022/08/19 02:36:23;;;;;;;0.88;0.85;;;17.80;99.90;;;;;;5003603;28;20445;-75
2022/08/19 02:38:48;;;;;;;0.40;0.30;;;17.90;99.90;;;;;;5005450;28;20421;-74
2022/08/19 02:41:17;;;;;;;0.40;0.30;;;17.90;99.90;;;;;;5004801;28;20416;-75
2022/08/19 02:43:43;;;;;;;0.40;0.38;;;17.90;99.90;;;;;;5003368;28;20423;-75
2022/08/19 02:46:35;;;;;;;0.40;0.30;;;17.90;99.90;;;;;;5004622;28;20406;-74
2022/08/19 02:49:04;;;;;;;0.40;0.20;;;17.90;99.90;;;;;;5001025;28;20501;-74
2022/08/19 02:51:34;;;;;;;0.40;0.40;;;17.90;99.90;;;;;;5000128;28;20412;-75
2022/08/19 02:54:00;;;;;;;0.50;0.50;;;17.90;99.90;;;;;;4986131;28;20401;-75
2022/08/19 02:56:27;;;;;;;0.40;0.30;;;17.90;99.90;;;;;;5003043;28;20424;-75
2022/08/19 02:58:55;;;;;;;0.40;0.30;;;17.90;99.90;;;;;;4984146;28;20788;-75
2022/08/19 03:01:27;;;;;;;0.80;0.80;;;17.80;99.90;;;;;;5007172;28;20980;-76
2022/08/19 03:03:55;;;;;;;0.40;0.40;;;17.80;99.90;;;;;;5004475;28;20548;-74
2022/08/19 03:06:21;;;;;;;0.40;0.20;;;17.70;99.90;;;;;;4997744;28;20908;-75
2022/08/19 03:08:49;;;;;;;0.40;0.20;;;17.90;99.90;;;;;;4988258;28;20420;-75
2022/08/19 03:11:21;;;;;;;0.40;0.30;;;17.90;99.90;;;;;;5002369;28;20416;-75
2022/08/19 03:13:50;;;;;;;0.80;0.40;;;17.80;99.90;;;;;;5000959;28;20410;-75
2022/08/19 03:16:18;;;;;;;0.40;0.30;;;17.90;99.90;;;;;;5006561;28;20400;-75
2022/08/19 03:18:43;;;;;;;0.40;0.30;;;17.80;99.90;;;;;;4999673;28;20420;-75
2022/08/19 03:21:09;;;;;;;0.40;0.30;;;17.80;99.90;;;;;;5003151;28;21136;-75
2022/08/19 03:23:35;;;;;;;0.40;0.20;;;17.80;99.90;;;;;;5004545;28;20416;-74
2022/08/19 03:26:05;;;;;;;2.10;0.90;;;17.70;99.90;;;;;;5003648;28;20883;-75
2022/08/19 03:28:32;;;;;;;0.40;0.20;;;17.80;99.90;;;;;;5000878;28;20414;-75
2022/08/19 03:31:04;;;;;;;0.40;0.30;;;17.80;99.90;;;;;;4997534;28;20456;-75
2022/08/19 03:33:31;;;;;;;0.40;0.30;;;17.70;99.90;;;;;;5005346;28;20461;-74
2022/08/19 03:36:00;;;;;;;0.40;0.30;;;17.80;99.90;;;;;;5001541;28;20387;-75
2022/08/19 03:38:26;;;;;;;0.40;0.30;;;17.80;99.90;;;;;;5002082;28;20426;-74
2022/08/19 03:40:51;;;;;;;0.40;0.40;;;17.70;99.90;;;;;;5003119;28;20420;-75
2022/08/19 03:43:17;;;;;;;0.60;0.60;;;17.80;99.90;;;;;;4983045;28;20462;-75
2022/08/19 03:45:43;;;;;;;0.40;0.30;;;17.70;99.90;;;;;;4988008;28;20412;-75
2022/08/19 03:48:09;;;;;;;0.90;0.90;;;17.80;99.90;;;;;;4995273;28;20464;-74
2022/08/19 03:50:39;;;;;;;0.40;0.30;;;17.80;99.90;;;;;;5006381;28;20406;-75
2022/08/19 03:53:04;;;;;;;0.50;0.50;;;17.80;99.90;;;;;;5000459;28;20990;-75
2022/08/19 03:55:30;;;;;;;0.93;0.93;;;17.80;99.90;;;;;;4993042;28;20416;-75
2022/08/19 03:57:56;;;;;;;0.50;0.50;;;17.80;99.90;;;;;;4984054;28;20394;-75
2022/08/19 04:00:21;;;;;;;1.10;1.00;;;17.80;99.90;;;;;;4995830;28;20410;-75
2022/08/19 04:02:47;;;;;;;0.40;0.30;;;17.70;99.90;;;;;;5001477;28;20418;-75
2022/08/19 04:05:13;;;;;;;0.40;0.30;;;17.80;99.90;;;;;;4999623;28;20427;-75
2022/08/19 04:07:39;;;;;;;0.40;0.20;;;17.80;99.90;;;;;;5007149;28;20418;-75
2022/08/19 04:10:05;;;;;;;0.60;0.60;;;17.90;99.90;;;;;;5001071;28;20420;-74
2022/08/19 04:12:31;;;;;;;0.40;0.30;;;17.80;99.90;;;;;;4998072;28;20423;-75
2022/08/19 04:14:58;;;;;;;0.40;0.30;;;17.80;99.90;;;;;;4989962;28;20400;-73
2022/08/19 04:17:23;;;;;;;0.40;0.40;;;17.90;99.90;;;;;;5000275;28;20417;-75
2022/08/19 04:19:49;;;;;;;0.40;0.30;;;17.90;99.90;;;;;;5002730;28;20413;-74
2022/08/19 04:22:15;;;;;;;0.40;0.20;;;17.90;99.90;;;;;;5002280;28;20500;-75
2022/08/19 04:24:40;;;;;;;0.40;0.20;;;17.80;99.90;;;;;;4983429;28;20405;-75
2022/08/19 04:27:06;;;;;;;0.40;0.30;;;17.80;99.90;;;;;;4986327;28;20408;-74
2022/08/19 04:29:32;;;;;;;0.40;0.40;;;17.80;99.90;;;;;;5000190;28;20796;-75
2022/08/19 04:31:59;;;;;;;0.40;0.30;;;17.80;99.90;;;;;;5000903;28;20400;-74
2022/08/19 04:34:28;;;;;;;0.40;0.30;;;17.90;99.90;;;;;;5003671;28;20416;-75
2022/08/19 04:36:55;;;;;;;1.60;0.90;;;17.90;99.90;;;;;;4991628;28;21022;-75
2022/08/19 04:42:38;;;;;;;0.40;0.30;;;17.90;99.90;;;;;;4984429;28;20418;-75
2022/08/19 04:44:54;;;;;;;0.40;0.30;;;17.80;99.90;;;;;;5002755;28;20432;-75
2022/08/19 04:47:19;;;;;;;0.40;0.30;;;17.90;99.90;;;;;;5002519;28;20482;-75
2022/08/19 04:49:45;;;;;;;0.40;0.40;;;17.90;99.90;;;;;;4997467;28;20533;-75
2022/08/19 04:52:11;;;;;;;0.90;0.90;;;17.90;99.90;;;;;;5006031;28;20409;-75
2022/08/19 04:54:37;;;;;;;0.40;0.40;;;17.90;99.90;;;;;;5001062;28;20778;-75
2022/08/19 04:57:05;;;;;;;0.40;0.30;;;18.00;99.90;;;;;;5002795;28;20408;-74
2022/08/19 04:59:32;;;;;;;0.40;0.30;;;18.00;99.90;;;;;;5000218;28;20444;-75
2022/08/19 05:01:57;;;;;;;0.40;0.30;;;18.00;99.90;;;;;;5001545;28;20549;-75
2022/08/19 05:04:23;;;;;;;0.50;0.50;;;17.90;99.90;;;;;;5006053;28;20506;-74
2022/08/19 05:06:49;;;;;;;0.50;0.50;;;17.90;99.90;;;;;;5000526;28;20439;-75
2022/08/19 05:09:15;;;;;;;0.40;0.40;;;17.90;99.90;;;;;;5001791;28;20409;-74
2022/08/19 05:11:41;;;;;;;0.50;0.50;;;18.00;99.90;;;;;;5001252;28;20441;-76
2022/08/19 05:14:08;;;;;;;0.47;0.32;;;18.00;99.90;;;;;;5005001;28;20428;-75
2022/08/19 05:16:34;;;;;;;0.40;0.30;;;18.00;99.90;;;;;;5000099;28;20901;-75
2022/08/19 05:24:29;;;;;;;0.70;0.70;;;18.10;99.90;;;;;;5000972;28;20416;-74
2022/08/19 05:26:58;;;;;;;0.57;0.57;;;18.10;99.90;;;;;;5001325;28;20412;-74
2022/08/19 05:29:26;;;;;;;0.40;0.30;;;18.10;99.90;;;;;;5006503;28;20424;-74
2022/08/19 05:31:53;;;;;;;0.40;0.30;;;18.10;99.90;;;;;;4999718;28;20489;-74
2022/08/19 05:34:21;;;;;;;0.40;0.30;;;18.10;99.90;;;;;;4998847;28;20512;-74
2022/08/19 05:36:49;;;;;;;0.40;0.30;;;18.20;99.90;;;;;;5006587;28;20417;-74
2022/08/19 05:39:19;;;;;;;0.40;0.20;;;18.20;99.90;;;;;;5001504;28;20450;-74
2022/08/19 05:41:48;;;;;;;1.00;0.60;;;18.10;99.90;;;;;;5006536;28;21122;-75
2022/08/19 05:44:14;;;;;;;0.40;0.30;;;18.20;99.90;;;;;;4987869;28;20794;-74
2022/08/19 05:46:40;;;;;;;0.40;0.40;;;18.20;99.90;;;;;;4998717;28;20441;-75
2022/08/19 05:49:07;;;;;;;0.60;0.60;;;18.20;99.90;;;;;;4981970;28;20409;-74
2022/08/19 05:51:35;;;;;;;0.60;0.60;;;18.20;99.90;;;;;;5002267;28;20416;-74
2022/08/19 05:54:02;;;;;;;0.50;0.50;;;18.30;99.90;;;;;;5007522;28;20408;-74
2022/08/19 05:56:30;;;;;;;0.40;0.30;;;18.20;99.90;;;;;;5005962;28;20432;-75
2022/08/19 05:58:56;;;;;;;0.40;0.40;;;18.30;99.90;;;;;;4982777;28;20875;-74
2022/08/19 06:01:21;;;;;;;0.95;0.90;;;18.30;99.90;;;;;;4993401;28;21095;-75
2022/08/19 06:03:49;;;;;;;0.60;0.60;;;18.40;99.90;;;;;;4997739;28;20424;-75
2022/08/19 06:06:16;;;;;;;1.50;0.70;;;18.50;99.90;;;;;;5000211;28;20408;-74
2022/08/19 06:08:42;;;;;;;1.10;1.00;;;18.50;99.90;;;;;;4998445;28;20475;-73
2022/08/19 06:11:38;;;;;;;0.45;0.40;;;18.60;99.90;;;;;;4999756;28;20414;-74
2022/08/19 06:14:19;;;;;;;0.70;0.70;;;18.60;99.90;;;;;;5004015;28;20905;-75
2022/08/19 06:16:45;;;;;;;0.80;0.80;;;18.60;99.90;;;;;;4998386;28;20922;-75
2022/08/19 06:19:16;;;;;;;0.40;0.40;;;18.70;99.90;;;;;;4982878;28;20404;-75
2022/08/19 06:21:44;;;;;;;0.40;0.30;;;18.70;99.90;;;;;;4997854;28;20411;-75
2022/08/19 06:24:12;;;;;;;0.40;0.30;;;18.80;99.90;;;;;;5003187;28;20419;-74
2022/08/19 06:26:40;;;;;;;0.40;0.40;;;18.70;99.90;;;;;;4984307;28;20411;-75
2022/08/19 06:29:07;;;;;;;0.40;0.20;;;18.70;99.90;;;;;;5006434;28;20409;-75
2022/08/19 06:31:34;;;;;;;0.45;0.45;;;18.80;99.90;;;;;;5002775;28;20432;-73
2022/08/19 06:34:03;;;;;;;0.40;0.20;;;18.80;99.90;;;;;;4998184;28;20477;-72
2022/08/19 06:36:35;;;;;;;0.40;0.20;;;18.80;99.90;;;;;;5003350;28;20437;-73
2022/08/19 06:39:06;;;;;;;0.40;0.40;;;18.90;99.90;;;;;;5005808;28;20914;-71
2022/08/19 06:41:39;;;;;;;0.40;0.30;;;18.90;99.90;;;;;;5005722;28;20420;-72
2022/08/19 06:44:05;;;;;;;0.40;0.30;;;18.90;99.90;;;;;;5007864;28;20408;-73
2022/08/19 06:46:31;;;;;;;0.87;0.87;;;18.90;99.90;;;;;;4999834;28;20400;-72
2022/08/19 06:48:57;;;;;;;0.40;0.30;;;19.00;99.90;;;;;;5003177;28;20946;-73
2022/08/19 06:51:23;;;;;;;0.40;0.40;;;19.00;99.90;;;;;;5008606;28;20412;-73
2022/08/19 06:53:52;;;;;;;0.40;0.30;;;19.10;99.90;;;;;;5006076;28;20413;-72
2022/08/19 06:56:21;;;;;;;0.40;0.30;;;19.10;99.90;;;;;;4999321;28;20405;-72
2022/08/19 06:58:50;;;;;;;0.40;0.30;;;19.30;99.90;;;;;;4980257;28;20426;-72
2022/08/19 07:01:16;;;;;;;1.30;1.20;;;19.40;99.90;;;;;;5002558;28;20440;-72
2022/08/19 07:03:41;;;;;;;0.40;0.30;;;19.40;99.90;;;;;;5002445;28;20506;-73
2022/08/19 07:06:10;;;;;;;0.40;0.30;;;19.40;99.90;;;;;;5004668;28;20487;-73
2022/08/19 07:08:37;;;;;;;0.40;0.30;;;19.40;99.90;;;;;;4995345;28;20439;-73
2022/08/19 07:11:12;;;;;;;0.40;0.25;;;19.40;99.90;;;;;;5003863;28;20405;-73
2022/08/19 07:13:39;;;;;;;0.60;0.50;;;19.50;99.90;;;;;;4984140;28;20467;-72
2022/08/19 07:16:07;;;;;;;0.40;0.30;;;19.50;99.90;;;;;;4985303;28;20382;-73
2022/08/19 07:18:33;;;;;;;0.70;0.70;;;19.40;99.90;;;;;;4998737;28;20392;-73
2022/08/19 07:21:07;;;;;;;0.40;0.30;;;19.50;99.90;;;;;;4991204;28;20421;-74
2022/08/19 07:23:33;;;;;;;0.40;0.30;;;19.60;99.90;;;;;;5005382;28;20501;-74
2022/08/19 07:26:08;;;;;;;0.40;0.27;;;19.70;99.90;;;;;;5004431;28;20491;-74
2022/08/19 07:28:34;;;;;;;0.50;0.50;;;19.70;99.90;;;;;;5006649;28;20417;-74
2022/08/19 07:31:01;;;;;;;0.60;0.60;;;19.70;99.90;;;;;;5008434;28;20488;-73
2022/08/19 07:33:27;;;;;;;0.70;0.70;;;19.80;99.90;;;;;;5007913;28;20387;-73
2022/08/19 07:35:53;;;;;;;0.50;0.50;;;19.90;99.90;;;;;;5002431;28;20953;-74
2022/08/19 07:38:18;;;;;;;0.40;0.20;;;19.80;99.90;;;;;;5003368;28;20846;-73
2022/08/19 07:40:45;;;;;;;0.40;0.40;;;19.90;99.90;;;;;;4992513;28;20413;-74
2022/08/19 07:43:11;;;;;;;0.50;0.50;;;19.90;99.90;;;;;;4993587;28;20738;-74
2022/08/19 07:45:37;;;;;;;0.50;0.40;;;19.80;99.90;;;;;;4993171;28;20406;-73
2022/08/19 07:48:03;;;;;;;0.43;0.30;;;19.90;99.90;;;;;;4992292;28;20426;-73
2022/08/19 07:50:29;;;;;;;0.40;0.30;;;20.00;99.90;;;;;;4993940;28;20422;-73
2022/08/19 07:52:56;;;;;;;0.40;0.30;;;20.00;99.90;;;;;;4993626;28;20428;-73
2022/08/19 07:55:25;;;;;;;0.40;0.30;;;19.90;99.90;;;;;;4976496;28;20966;-73
2022/08/19 07:57:52;;;;;;;0.50;0.50;;;19.80;99.90;;;;;;4993820;28;20390;-73
2022/08/19 08:00:18;;;;;;;1.00;1.00;;;19.90;99.90;;;;;;4993894;28;20394;-73
2022/08/19 08:02:43;;;;;;;1.55;1.50;;;19.90;99.90;;;;;;4993407;28;20884;-73
2022/08/19 08:10:38;;;;;;;0.80;0.80;;;20.20;99.90;;;;;;5072741;28;20891;-74
2022/08/19 08:13:05;;;;;;;0.40;0.30;;;20.20;99.90;;;;;;5072379;28;20383;-74
2022/08/19 08:15:31;;;;;;;0.40;0.30;;;20.10;99.90;;;;;;5072622;28;20400;-74
2022/08/19 08:17:57;;;;;;;0.40;0.30;;;20.00;99.90;;;;;;5072486;28;20368;-74
2022/08/19 08:20:24;;;;;;;0.40;0.30;;;20.00;99.90;;;;;;5072486;28;20467;-74
2022/08/19 08:25:35;;;;;;;0.60;0.60;;;20.00;99.90;;;;;;5072543;28;20976;-74
2022/08/19 08:28:01;;;;;;;0.40;0.40;;;19.90;99.90;;;;;;5071024;28;20388;-74
2022/08/19 08:30:28;;;;;;;0.40;0.30;;;19.90;99.90;;;;;;5073080;28;20382;-75
2022/08/19 08:32:54;;;;;;;1.27;1.20;;;19.90;99.90;;;;;;5072710;28;20380;-74
2022/08/19 08:35:22;;;;;;;0.40;0.40;;;19.90;99.90;;;;;;5072582;28;20387;-74
2022/08/19 08:37:49;;;;;;;0.40;0.30;;;19.80;99.90;;;;;;5072402;28;20495;-74
2022/08/19 08:40:21;;;;;;;0.40;0.30;;;19.80;99.90;;;;;;5054270;28;20418;-74
2022/08/19 08:43:21;;;;;;;0.70;0.70;;;19.80;99.90;;;;;;5072075;28;20387;-73
2022/08/19 08:46:09;;;;;;;0.50;0.50;;;20.00;99.90;;;;;;5066426;28;20430;-74
2022/08/19 08:48:40;;;;;;;0.40;0.30;;;20.00;99.90;;;;;;5054121;28;20484;-74
2022/08/19 08:51:22;;;;;;;0.40;0.38;;;20.10;99.90;;;;;;5072177;28;20433;-74
2022/08/19 08:53:50;;;;;;;0.70;0.70;;;20.00;99.90;;;;;;5071830;28;20813;-74
2022/08/19 08:56:16;;;;;;;0.50;0.50;;;20.00;99.90;;;;;;5071758;28;20394;-74
2022/08/19 08:58:47;;;;;;;0.40;0.20;;;20.00;99.90;;;;;;5071648;28;20862;-74
2022/08/19 09:01:13;;;;;;;2.00;1.20;;;19.90;99.90;;;;;;5072120;28;20436;-74
2022/08/19 09:03:41;;;;;;;0.60;0.60;;;20.00;99.90;;;;;;5071366;28;20419;-74
2022/08/19 09:06:33;;;;;;;0.52;0.52;;;20.10;99.90;;;;;;5071572;28;20498;-74
2022/08/19 09:09:13;;;;;;;0.50;0.50;;;20.20;99.90;;;;;;5071150;28;20417;-74
2022/08/19 09:11:44;;;;;;;0.50;0.50;;;20.20;99.90;;;;;;5071570;28;20384;-74
2022/08/19 09:14:13;;;;;;;2.08;1.65;;;20.20;99.90;;;;;;5071040;28;20376;-75
2022/08/19 09:16:40;;;;;;;1.00;1.00;;;20.20;99.90;;;;;;5053559;28;20384;-74
2022/08/19 09:19:08;;;;;;;0.80;0.80;;;20.20;99.90;;;;;;5071080;28;20471;-74
2022/08/19 09:21:34;;;;;;;0.40;0.20;;;20.20;99.90;;;;;;5070706;28;20407;-75
2022/08/19 09:24:01;;;;;;;0.50;0.50;;;20.20;99.90;;;;;;5070922;28;20384;-74
2022/08/19 09:26:26;;;;;;;0.63;0.63;;;20.20;99.90;;;;;;5071180;28;20376;-74
2022/08/19 09:28:54;;;;;;;0.40;0.40;;;20.10;99.90;;;;;;5070985;28;20418;-74
2022/08/19 09:31:23;;;;;;;0.40;0.40;;;20.10;99.90;;;;;;5053377;28;20749;-74
2022/08/19 09:33:49;;;;;;;0.70;0.50;;;20.20;99.90;;;;;;5052780;28;20399;-74
2022/08/19 09:36:18;;;;;;;0.40;0.40;;;20.40;99.90;;;;;;5071031;28;20384;-74
2022/08/19 09:38:44;;;;;;;0.50;0.50;;;20.40;99.90;;;;;;5052707;28;20491;-74
2022/08/19 09:41:14;;;;;;;0.50;0.50;;;20.40;99.90;;;;;;5070841;28;20383;-74
2022/08/19 09:43:42;;;;;;;0.80;0.80;;;20.40;99.90;;;;;;5070489;28;20383;-74
2022/08/19 09:46:09;;;;;;;0.70;0.70;;;20.40;99.90;;;;;;5052985;28;20419;-74
2022/08/19 09:48:39;;;;;;;1.30;1.20;;;20.50;99.90;;;;;;5070615;28;20410;-74
2022/08/19 09:51:08;;;;;;;0.45;0.43;;;20.60;99.90;;;;;;5070802;28;20388;-74
2022/08/19 09:53:37;;;;;;;0.80;0.80;;;20.70;99.90;;;;;;5070431;28;20377;-74
2022/08/19 09:56:05;;;;;;;0.75;0.75;;;20.90;99.90;;;;;;5070715;28;20376;-74
2022/08/19 09:58:32;;;;;;;0.80;0.80;;;20.90;99.90;;;;;;5070932;28;20880;-74
2022/08/19 10:00:59;;;;;;;0.60;0.60;;;20.90;99.90;;;;;;5070868;28;20387;-74
2022/08/19 10:03:25;;;;;;;0.40;0.30;;;21.10;99.90;;;;;;5070365;28;20803;-74
2022/08/19 10:05:52;;;;;;;0.40;0.30;;;21.20;99.90;;;;;;5070712;28;20402;-74
2022/08/19 10:08:28;;;;;;;0.40;0.40;;;21.40;99.90;;;;;;5070390;28;20387;-74
2022/08/19 10:10:54;;;;;;;1.58;1.58;;;21.60;99.90;;;;;;5070687;28;20411;-74
2022/08/19 10:13:23;;;;;;;0.40;0.40;;;21.70;99.90;;;;;;5070458;28;20714;-73
2022/08/19 10:15:52;;;;;;;0.60;0.60;;;21.80;99.90;;;;;;5070442;28;20390;-74
2022/08/19 10:18:20;;;;;;;0.40;0.40;;;21.80;99.90;;;;;;5070345;28;20383;-74
2022/08/19 10:20:47;;;;;;;0.40;0.20;;;21.60;99.90;;;;;;5070527;28;20781;-74
2022/08/19 10:23:14;;;;;;;0.40;0.30;;;21.60;99.90;;;;;;5069570;28;20379;-74
2022/08/19 10:25:40;;;;;;;0.45;0.40;;;21.20;99.90;;;;;;5070416;28;20869;-74
2022/08/19 10:28:07;;;;;;;0.40;0.20;;;21.30;99.90;;;;;;5070263;28;20388;-74
2022/08/19 10:30:33;;;;;;;0.90;0.90;;;21.40;99.90;;;;;;5070343;28;20396;-72
2022/08/19 10:32:59;;;;;;;1.30;0.80;;;21.40;99.90;;;;;;5070009;28;20379;-74
2022/08/19 10:35:29;;;;;;;0.40;0.20;;;21.10;99.90;;;;;;5070323;28;20768;-74
2022/08/19 10:37:58;;;;;;;0.70;0.70;;;21.10;99.90;;;;;;5070350;28;20753;-74
2022/08/19 10:40:26;;;;;;;0.50;0.50;;;21.30;99.90;;;;;;5070187;28;20384;-74
2022/08/19 10:42:52;;;;;;;0.60;0.60;;;21.30;99.90;;;;;;5069883;28;20387;-74
2022/08/19 10:45:17;;;;;;;1.10;1.10;;;21.10;99.90;;;;;;5070190;28;20391;-74
2022/08/19 10:47:43;;;;;;;0.60;0.60;;;21.00;99.90;;;;;;5070162;28;20476;-74
2022/08/19 10:52:53;;;;;;;0.60;0.60;;;21.00;99.90;;;;;;5074212;28;20386;-74
2022/08/19 10:58:14;;;;;;;0.80;0.80;;;21.30;99.90;;;;;;5074249;28;20378;-74
2022/08/19 11:00:40;;;;;;;0.40;0.30;;;21.30;99.90;;;;;;5073837;28;20472;-74
2022/08/19 11:03:05;;;;;;;0.90;0.90;;;21.40;99.90;;;;;;5056348;28;20425;-74
2022/08/19 11:05:31;;;;;;;1.10;0.80;;;21.70;99.90;;;;;;5073863;28;20392;-74
2022/08/19 11:07:56;;;;;;;0.60;0.30;;;21.80;99.90;;;;;;5073581;28;20468;-74
2022/08/19 11:10:23;;;;;;;1.00;0.80;;;21.90;99.90;;;;;;5073632;28;20407;-74
2022/08/19 11:12:50;;;;;;;0.40;0.28;;;22.00;99.90;;;;;;5073561;28;20383;-73
2022/08/19 11:15:16;;;;;;;0.43;0.43;;;22.20;99.90;;;;;;5055874;28;20372;-74
2022/08/19 11:17:43;;;;;;;0.40;0.30;;;22.40;99.90;;;;;;5073459;28;20391;-74
2022/08/19 11:20:11;;;;;;;1.10;0.80;;;22.60;99.90;;;;;;5073605;28;20379;-74
2022/08/19 11:22:37;;;;;;;0.57;0.57;;;23.00;99.90;;;;;;5072733;28;20391;-74
2022/08/19 11:25:04;;;;;;;0.70;0.70;;;22.90;99.90;;;;;;5073476;28;20753;-74
2022/08/19 11:27:30;;;;;;;2.50;0.83;;;22.90;99.90;;;;;;5073461;28;20415;-74
2022/08/19 11:29:55;;;;;;;0.40;0.30;;;22.90;99.90;;;;;;5055360;28;20438;-74
2022/08/19 11:32:21;;;;;;;0.60;0.60;;;23.10;99.90;;;;;;5073378;28;20746;-74
2022/08/19 11:34:46;;;;;;;0.70;0.70;;;23.20;99.90;;;;;;5073034;28;20804;-74
2022/08/19 11:37:12;;;;;;;0.80;0.80;;;23.10;99.90;;;;;;5073218;28;20406;-74
2022/08/19 11:39:38;;;;;;;0.43;0.38;;;23.00;99.90;;;;;;5073076;28;20876;-73
2022/08/19 11:42:54;;;;;;;1.30;1.30;;;22.90;99.90;;;;;;5073051;28;20761;-74
2022/08/19 11:44:51;;;;;;;0.40;0.40;;;22.60;99.90;;;;;;5072657;28;20754;-74
2022/08/19 11:47:18;;;;;;;0.90;0.90;;;22.40;99.90;;;;;;5073005;28;20422;-74
2022/08/19 11:49:43;;;;;;;1.00;1.00;;;22.60;99.90;;;;;;5073057;28;20462;-74
2022/08/19 11:52:09;;;;;;;0.70;0.70;;;22.80;99.90;;;;;;5072852;28;20486;-74
2022/08/19 11:54:34;;;;;;;0.60;0.60;;;22.80;99.90;;;;;;5073204;28;20425;-74
2022/08/19 11:57:02;;;;;;;0.50;0.50;;;23.00;99.90;;;;;;5072882;28;20383;-74
2022/08/19 11:59:29;;;;;;;0.70;0.70;;;23.20;99.90;;;;;;5072841;28;20392;-74
2022/08/19 12:01:55;;;;;;;0.90;0.80;;;23.40;99.90;;;;;;5072673;28;20789;-74
2022/08/19 12:04:21;;;;;;;0.60;0.60;;;23.40;99.90;;;;;;5072549;28;20722;-75
2022/08/19 12:06:47;;;;;;;0.40;0.20;;;23.10;99.90;;;;;;5072647;28;20466;-74
2022/08/19 12:09:14;;;;;;;2.00;1.50;;;23.00;99.90;;;;;;5072513;28;20817;-74
2022/08/19 12:11:40;;;;;;;0.70;0.60;;;22.70;99.90;;;;;;5073146;28;20384;-74
2022/08/19 12:14:09;;;;;;;0.80;0.63;;;22.80;99.90;;;;;;5072478;28;20466;-74
2022/08/19 12:16:34;;;;;;;0.50;0.45;;;22.90;99.90;;;;;;5072497;28;20730;-73
2022/08/19 12:19:03;;;;;;;0.40;0.30;;;23.10;99.90;;;;;;5072432;28;20394;-74
2022/08/19 12:21:31;;;;;;;0.45;0.45;;;23.30;99.90;;;;;;5072013;28;20390;-74
2022/08/19 12:23:59;;;;;;;0.70;0.70;;;23.30;99.90;;;;;;5072206;28;20756;-74
2022/08/19 12:26:26;;;;;;;0.60;0.60;;;23.30;99.90;;;;;;5072330;28;20911;-74
2022/08/19 12:28:52;;;;;;;0.60;0.60;;;23.60;99.90;;;;;;5072087;28;20441;-74
2022/08/19 12:31:19;;;;;;;0.40;0.20;;;23.40;99.90;;;;;;5072113;28;20383;-74
2022/08/19 12:33:46;;;;;;;0.40;0.20;;;23.50;99.90;;;;;;5071894;28;20437;-73
2022/08/19 12:36:14;;;;;;;0.40;0.30;;;23.40;99.90;;;;;;5072189;28;20799;-74
2022/08/19 12:38:40;;;;;;;0.40;0.30;;;23.40;99.90;;;;;;5054064;28;20390;-73
2022/08/19 12:41:10;;;;;;;0.50;0.50;;;23.30;99.90;;;;;;5071880;28;20391;-73
2022/08/19 12:43:37;;;;;;;0.80;0.80;;;23.70;99.90;;;;;;5071642;28;20380;-73
2022/08/19 12:46:04;;;;;;;0.40;0.30;;;23.50;99.90;;;;;;5071782;28;20907;-73
2022/08/19 12:48:30;;;;;;;0.43;0.38;;;23.40;99.90;;;;;;5071791;28;20437;-73
2022/08/19 12:50:56;;;;;;;0.40;0.30;;;23.70;99.90;;;;;;5071756;28;20380;-73
2022/08/19 12:53:21;;;;;;;0.90;0.70;;;23.90;99.90;;;;;;5071498;28;20407;-73
2022/08/19 12:55:47;;;;;;;0.50;0.50;;;24.30;99.90;;;;;;5071632;28;20415;-73
2022/08/19 12:58:12;;;;;;;0.90;0.90;;;24.20;99.90;;;;;;5071499;28;20376;-73
2022/08/19 13:00:39;;;;;;;0.40;0.30;;;23.80;99.90;;;;;;5071375;28;20383;-74
2022/08/19 13:03:05;;;;;;;0.40;0.30;;;24.00;99.90;;;;;;5071427;28;20850;-73
2022/08/19 13:05:33;;;;;;;0.40;0.30;;;24.00;99.90;;;;;;5071592;28;20391;-74
2022/08/19 13:07:59;;;;;;;0.80;0.80;;;24.00;99.90;;;;;;5071350;28;20392;-73
2022/08/19 13:10:34;;;;;;;1.30;1.10;;;24.60;99.90;;;;;;5071491;28;20403;-73
2022/08/19 13:13:01;;;;;;;0.40;0.40;;;24.10;99.90;;;;;;5070913;28;20380;-73